OMAL/AAN METAR and TAF weather

Enter ICAO airport designator
Station Type Date Time Source
OMAL METAR 2020/04/03 07:00 UTC NOAA

OMAL 030700Z 16010KT CAVOK 33/05 Q1014 NOSIG


Station Type Date Time Source
OMAL Decoded METAR 2020/04/03 07:00 UTC NOAA

Al Ain International Airport, United Arab Emirates (OMAL) 24-16N 055-36E 262M
Apr 03, 2020 - 03:00 AM EDT / 2020.04.03 0700 UTC
Wind: from the SSE (160 degrees) at 12 MPH (10 KT):0
Visibility: greater than 7 mile(s):0
Temperature: 91 F (33 C)
Dew Point: 41 F (5 C)
Relative Humidity: 17%
Pressure (altimeter): 29.94 in. Hg (1014 hPa)
ob: OMAL 030700Z 16010KT CAVOK 33/05 Q1014 NOSIG
cycle: 7

Station Type Date Time Source
OMAL TAF 2020/04/03 06:03 UTC NOAA

TAF OMAL 030500Z 0306/0412 17010KT CAVOK
BECMG 0311/0313 29008KT
BECMG 0316/0318 06010KT
BECMG 0401/0403 17015KT
BECMG 0411/0412 34010KT

Example: see airport list